createdAt,value
2023-03-03T00:01:15.515Z,0.21
2023-03-03T00:03:42.609Z,0.25
2023-03-03T00:06:11.750Z,0.23
2023-03-03T00:08:38.687Z,0.19
2023-03-03T00:11:07.953Z,0.19
2023-03-03T00:13:55.696Z,0.20
2023-03-03T00:16:28.066Z,0.22
2023-03-03T00:18:55.397Z,0.22
2023-03-03T00:21:42.983Z,0.25
2023-03-03T00:24:24.839Z,0.27
2023-03-03T00:26:57.777Z,0.30
2023-03-03T00:29:29.477Z,0.37
2023-03-03T00:32:04.590Z,0.38
2023-03-03T00:34:31.800Z,0.30
2023-03-03T00:36:58.372Z,0.27
2023-03-03T00:39:31.268Z,0.33
2023-03-03T00:42:00.533Z,0.28
2023-03-03T00:44:56.274Z,0.34
2023-03-03T00:47:31.467Z,0.29
2023-03-03T00:50:18.285Z,0.30
2023-03-03T00:52:52.887Z,0.29
2023-03-03T00:55:19.537Z,0.29
2023-03-03T00:57:46.759Z,0.29
2023-03-03T01:00:15.077Z,0.28
2023-03-03T01:02:41.683Z,0.27
2023-03-03T01:05:12.993Z,0.29
2023-03-03T01:07:39.947Z,0.27
2023-03-03T01:10:07.170Z,0.26
2023-03-03T01:12:34.557Z,0.27
2023-03-03T01:15:01.221Z,0.35
2023-03-03T01:17:28.915Z,0.29
2023-03-03T01:19:56.762Z,0.33
2023-03-03T01:22:23.442Z,0.36
2023-03-03T01:24:50.354Z,0.35
2023-03-03T01:27:17.093Z,0.45
2023-03-03T01:29:43.843Z,0.49
2023-03-03T01:32:10.660Z,0.45
2023-03-03T01:34:37.182Z,0.47
2023-03-03T01:37:04.521Z,0.42
2023-03-03T01:39:31.043Z,0.45
2023-03-03T01:41:57.885Z,0.52
2023-03-03T01:44:24.487Z,0.50
2023-03-03T01:47:06.225Z,0.54
2023-03-03T01:49:58.557Z,0.53
2023-03-03T01:52:30.440Z,0.51
2023-03-03T01:54:59.457Z,0.59
2023-03-03T01:57:35.483Z,0.55
2023-03-03T02:00:05.695Z,0.56
2023-03-03T02:02:40.146Z,0.58
2023-03-03T02:05:07.642Z,0.54
2023-03-03T02:07:35.649Z,0.46
2023-03-03T02:10:05.717Z,0.33
2023-03-03T02:12:36.157Z,0.25
2023-03-03T02:15:16.385Z,0.20
2023-03-03T02:17:43.473Z,0.18
2023-03-03T02:20:20.578Z,0.14
2023-03-03T02:22:57.282Z,0.11
2023-03-03T02:25:58.602Z,0.15
2023-03-03T02:28:29.958Z,0.21
2023-03-03T02:30:58.163Z,0.15
2023-03-03T02:33:26.482Z,0.09
2023-03-03T02:35:53.324Z,0.04
2023-03-03T02:38:35.304Z,0.04
2023-03-03T02:41:31.056Z,0.05
2023-03-03T02:44:05.630Z,-0.03
2023-03-03T02:46:38.867Z,-0.04
2023-03-03T02:49:08.677Z,-0.16
2023-03-03T02:51:36.946Z,-0.15
2023-03-03T02:54:05.550Z,-0.21
2023-03-03T02:56:33.181Z,-0.29
2023-03-03T02:59:00.146Z,-0.37
2023-03-03T03:01:28.295Z,-0.37
2023-03-03T03:03:54.993Z,-0.43
2023-03-03T03:06:23.165Z,-0.49
2023-03-03T03:08:49.954Z,-0.50
2023-03-03T03:11:16.778Z,-0.43
2023-03-03T03:13:44.955Z,-0.41
2023-03-03T03:16:12.818Z,-0.38
2023-03-03T03:18:39.851Z,-0.32
2023-03-03T03:21:11.467Z,-0.35
2023-03-03T03:23:40.428Z,-0.42
2023-03-03T03:26:07.778Z,-0.51
2023-03-03T03:28:34.984Z,-0.60
2023-03-03T03:31:02.962Z,-0.68
2023-03-03T03:33:29.795Z,-0.78
2023-03-03T03:35:58.597Z,-0.89
2023-03-03T03:38:27.121Z,-0.99
2023-03-03T03:40:55.019Z,-0.95
2023-03-03T03:43:22.778Z,-1.01
2023-03-03T03:45:49.743Z,-0.99
2023-03-03T03:48:17.620Z,-0.97
2023-03-03T03:50:47.818Z,-0.93
2023-03-03T03:53:16.088Z,-0.89
2023-03-03T03:55:42.995Z,-0.88
2023-03-03T03:58:13.959Z,-0.81
2023-03-03T04:00:42.360Z,-0.79
2023-03-03T04:03:10.962Z,-0.76
2023-03-03T04:05:38.059Z,-0.78
2023-03-03T04:08:06.377Z,-0.76
2023-03-03T04:10:33.575Z,-0.72
2023-03-03T04:13:00.317Z,-0.66
2023-03-03T04:15:27.108Z,-0.62
2023-03-03T04:17:54.673Z,-0.62
2023-03-03T04:20:21.345Z,-0.62
2023-03-03T04:22:48.621Z,-0.56
2023-03-03T04:25:16.951Z,-0.54
2023-03-03T04:27:45.636Z,-0.50
2023-03-03T04:30:15.872Z,-0.43
2023-03-03T04:32:45.741Z,-0.42
2023-03-03T04:35:13.408Z,-0.43
2023-03-03T04:37:43.168Z,-0.39
2023-03-03T04:40:12.019Z,-0.30
2023-03-03T04:42:40.238Z,-0.27
2023-03-03T04:45:09.158Z,-0.33
2023-03-03T04:47:36.422Z,-0.29
2023-03-03T04:50:03.564Z,-0.29
2023-03-03T04:52:32.261Z,-0.30
2023-03-03T04:54:59.292Z,-0.30
2023-03-03T04:57:26.886Z,-0.28
2023-03-03T04:59:54.359Z,-0.20
2023-03-03T05:02:21.286Z,-0.20
2023-03-03T05:04:48.266Z,-0.20
2023-03-03T05:07:14.846Z,-0.15
2023-03-03T05:09:41.790Z,-0.17
2023-03-03T05:12:08.455Z,-0.14
2023-03-03T05:14:35.102Z,-0.13
2023-03-03T05:17:03.394Z,-0.11
2023-03-03T05:19:30.178Z,-0.08
2023-03-03T05:21:57.579Z,-0.05
2023-03-03T05:24:24.413Z,-0.02
2023-03-03T05:26:51.032Z,0.00
2023-03-03T05:29:17.831Z,0.03
2023-03-03T05:31:45.762Z,0.06
2023-03-03T05:34:12.507Z,0.06
2023-03-03T05:36:39.141Z,0.06
2023-03-03T05:39:05.925Z,0.07
2023-03-03T05:41:32.700Z,0.10
2023-03-03T05:43:59.336Z,0.12
2023-03-03T05:46:26.208Z,0.16
2023-03-03T05:48:52.918Z,0.17
2023-03-03T05:51:19.775Z,0.20
2023-03-03T05:53:46.346Z,0.24
2023-03-03T05:56:12.887Z,0.24
2023-03-03T05:58:39.440Z,0.27
2023-03-03T06:01:06.157Z,0.24
2023-03-03T06:03:33.476Z,0.26
2023-03-03T06:06:00.150Z,0.25
2023-03-03T06:08:26.902Z,0.23
2023-03-03T06:10:53.698Z,0.27
2023-03-03T06:13:20.616Z,0.26
2023-03-03T06:15:47.195Z,0.29
2023-03-03T06:18:13.932Z,0.29
2023-03-03T06:20:40.459Z,0.31
2023-03-03T06:23:07.194Z,0.36
2023-03-03T06:25:35.875Z,0.36
2023-03-03T06:28:03.909Z,0.37
2023-03-03T06:30:30.783Z,0.27
2023-03-03T06:32:57.599Z,0.34
2023-03-03T06:35:24.478Z,0.34
2023-03-03T06:37:51.856Z,0.22
2023-03-03T06:40:18.604Z,0.13
2023-03-03T06:42:45.964Z,0.10
2023-03-03T06:45:12.946Z,0.21
2023-03-03T06:47:39.778Z,0.13
2023-03-03T06:50:07.228Z,0.17
2023-03-03T06:52:34.151Z,0.22
2023-03-03T06:55:09.810Z,0.27
2023-03-03T06:57:37.032Z,0.32
2023-03-03T07:00:18.372Z,0.39
2023-03-03T07:02:45.008Z,0.43
2023-03-03T07:05:17.893Z,0.50
2023-03-03T07:07:45.010Z,0.55
2023-03-03T07:10:27.882Z,0.63
2023-03-03T07:12:58.368Z,0.66
2023-03-03T07:15:32.832Z,0.69
2023-03-03T07:18:00.052Z,0.67
2023-03-03T07:20:35.197Z,0.71
2023-03-03T07:23:18.730Z,0.74
2023-03-03T07:25:46.649Z,0.75
2023-03-03T07:28:29.502Z,0.79
2023-03-03T07:30:58.026Z,0.84
2023-03-03T07:33:35.190Z,0.93
2023-03-03T07:36:03.723Z,0.94
2023-03-03T07:38:49.615Z,0.99
2023-03-03T07:41:20.853Z,0.95
2023-03-03T07:44:06.463Z,0.97
2023-03-03T07:46:52.657Z,0.95
2023-03-03T07:49:23.656Z,0.97
2023-03-03T07:51:57.349Z,1.09
2023-03-03T07:54:35.994Z,1.16
2023-03-03T07:57:21.023Z,1.21
2023-03-03T07:59:52.247Z,1.14
2023-03-03T08:03:04.111Z,1.13
2023-03-03T08:05:35.958Z,1.09
2023-03-03T08:08:26.925Z,1.10
2023-03-03T08:10:55.487Z,1.17
2023-03-03T08:13:43.103Z,1.18
2023-03-03T08:16:09.722Z,1.24
2023-03-03T08:18:39.988Z,1.31
2023-03-03T08:21:26.300Z,1.62
2023-03-03T08:23:53.753Z,1.95
2023-03-03T08:26:22.192Z,1.94
2023-03-03T08:28:49.504Z,2.02
2023-03-03T08:31:27.988Z,1.87
2023-03-03T08:34:04.626Z,1.86
2023-03-03T08:36:33.642Z,1.86
2023-03-03T08:39:01.971Z,1.93
2023-03-03T08:41:28.674Z,1.97
2023-03-03T08:43:55.186Z,1.98
2023-03-03T08:46:21.988Z,1.93
2023-03-03T08:48:49.872Z,1.92
2023-03-03T08:51:16.536Z,2.10
2023-03-03T08:53:43.156Z,2.05
2023-03-03T08:56:10.646Z,2.02
2023-03-03T08:58:37.533Z,2.04
2023-03-03T09:01:04.922Z,1.98
2023-03-03T09:03:31.786Z,2.15
2023-03-03T09:05:58.418Z,2.23
2023-03-03T09:08:25.141Z,2.38
2023-03-03T09:10:51.866Z,2.39
2023-03-03T09:13:19.804Z,2.53
2023-03-03T09:15:47.669Z,2.54
2023-03-03T09:18:18.876Z,2.68
2023-03-03T09:20:45.516Z,2.76
2023-03-03T09:23:31.124Z,2.90
2023-03-03T09:26:11.664Z,3.03
2023-03-03T09:28:38.211Z,3.13
2023-03-03T09:31:22.211Z,3.24
2023-03-03T09:33:55.129Z,3.71
2023-03-03T09:36:38.584Z,3.83
2023-03-03T09:39:31.985Z,3.95
2023-03-03T09:42:07.638Z,4.12
2023-03-03T09:44:37.122Z,4.34
2023-03-03T09:47:06.656Z,4.66
2023-03-03T09:49:36.355Z,4.35
2023-03-03T09:52:16.291Z,4.51
2023-03-03T09:55:00.928Z,4.43
2023-03-03T09:57:36.292Z,4.56
2023-03-03T10:00:15.997Z,4.55
2023-03-03T10:03:08.692Z,4.29
2023-03-03T10:05:55.585Z,4.43
2023-03-03T10:08:37.124Z,4.34
2023-03-03T10:11:22.704Z,4.50
2023-03-03T10:14:20.481Z,4.55
2023-03-03T10:16:56.501Z,4.55
2023-03-03T10:19:38.512Z,4.69
2023-03-03T10:22:10.889Z,4.75
2023-03-03T10:24:59.652Z,4.93
2023-03-03T10:27:45.752Z,4.82
2023-03-03T10:30:38.953Z,4.98
2023-03-03T10:33:22.544Z,4.96
2023-03-03T10:36:08.704Z,4.55
2023-03-03T10:38:55.720Z,4.55
2023-03-03T10:41:55.184Z,4.72
2023-03-03T10:44:38.600Z,4.99
2023-03-03T10:47:44.374Z,4.65
2023-03-03T10:50:28.204Z,4.81
2023-03-03T10:53:27.447Z,5.06
2023-03-03T10:56:11.136Z,4.98
2023-03-03T10:58:40.744Z,4.97
2023-03-03T11:01:25.593Z,4.94
2023-03-03T11:04:01.277Z,5.07
2023-03-03T11:06:58.810Z,5.21
2023-03-03T11:10:01.229Z,5.54
2023-03-03T11:12:51.617Z,5.75
2023-03-03T11:15:44.825Z,5.55
2023-03-03T11:18:42.573Z,5.28
2023-03-03T11:21:27.944Z,5.17
2023-03-03T11:24:00.847Z,5.36
2023-03-03T11:26:41.884Z,5.37
2023-03-03T11:29:45.495Z,5.22
2023-03-03T11:32:36.937Z,5.43
2023-03-03T11:35:44.123Z,5.70
2023-03-03T11:38:19.605Z,5.79
2023-03-03T11:40:53.670Z,5.91
2023-03-03T11:43:37.754Z,6.05
2023-03-03T11:46:13.098Z,6.03
2023-03-03T11:49:01.954Z,5.97
2023-03-03T11:51:34.202Z,5.94
2023-03-03T11:54:24.004Z,5.66
2023-03-03T11:56:54.750Z,5.86
2023-03-03T11:59:39.323Z,5.85
2023-03-03T12:02:27.182Z,5.71
2023-03-03T12:05:04.948Z,5.67
2023-03-03T12:08:14.202Z,5.54
2023-03-03T12:10:59.490Z,5.49
2023-03-03T12:13:39.676Z,5.26
2023-03-03T12:16:15.981Z,5.18
2023-03-03T12:19:01.587Z,4.89
2023-03-03T12:21:37.001Z,4.71
2023-03-03T12:24:06.678Z,5.10
2023-03-03T12:27:08.606Z,5.27
2023-03-03T12:30:20.097Z,5.52
2023-03-03T12:33:08.285Z,5.59
2023-03-03T12:35:50.518Z,5.71
2023-03-03T12:38:44.915Z,5.70
2023-03-03T12:41:33.315Z,5.79
2023-03-03T12:44:03.147Z,5.90
2023-03-03T12:46:32.737Z,5.98
2023-03-03T12:48:59.353Z,6.10
2023-03-03T12:52:01.311Z,6.34
2023-03-03T12:54:39.353Z,6.37
2023-03-03T12:57:27.470Z,6.17
2023-03-03T13:00:15.985Z,6.26
2023-03-03T13:03:05.610Z,6.32
2023-03-03T13:05:50.903Z,6.13
2023-03-03T13:08:39.172Z,6.40
2023-03-03T13:11:29.002Z,6.39
2023-03-03T13:14:19.122Z,6.49
2023-03-03T13:16:58.989Z,6.49
2023-03-03T13:19:42.721Z,6.26
2023-03-03T13:22:18.005Z,6.22
2023-03-03T13:24:44.701Z,6.23
2023-03-03T13:27:19.098Z,6.12
2023-03-03T13:30:19.621Z,6.35
2023-03-03T13:33:07.342Z,6.57
2023-03-03T13:35:42.950Z,5.97
2023-03-03T13:38:13.903Z,6.02
2023-03-03T13:40:45.288Z,6.11
2023-03-03T13:43:24.128Z,6.07
2023-03-03T13:46:14.939Z,5.87
2023-03-03T13:48:52.183Z,5.78
2023-03-03T13:51:46.739Z,5.75
2023-03-03T13:54:19.212Z,5.95
2023-03-03T13:56:48.509Z,6.20
2023-03-03T13:59:32.065Z,6.39
2023-03-03T14:02:16.779Z,6.45
2023-03-03T14:05:31.540Z,6.61
2023-03-03T14:08:07.578Z,6.45
2023-03-03T14:10:57.060Z,6.53
2023-03-03T14:13:55.928Z,6.55
2023-03-03T14:16:28.719Z,6.85
2023-03-03T14:19:02.416Z,6.68
2023-03-03T14:21:36.611Z,6.87
2023-03-03T14:24:17.088Z,7.10
2023-03-03T14:26:55.970Z,6.95
2023-03-03T14:29:28.883Z,6.84
2023-03-03T14:32:01.968Z,6.56
2023-03-03T14:34:40.087Z,6.29
2023-03-03T14:37:29.984Z,6.28
2023-03-03T14:40:17.184Z,5.92
2023-03-03T14:42:52.702Z,6.23
2023-03-03T14:45:40.114Z,6.50
2023-03-03T14:48:23.718Z,6.50
2023-03-03T14:50:53.932Z,6.11
2023-03-03T14:53:42.514Z,5.94
2023-03-03T14:56:23.738Z,5.99
2023-03-03T14:58:54.298Z,6.17
2023-03-03T15:01:30.564Z,6.19
2023-03-03T15:03:57.416Z,6.01
2023-03-03T15:06:51.639Z,6.19
2023-03-03T15:09:24.401Z,6.24
2023-03-03T15:11:53.238Z,6.29
2023-03-03T15:14:23.123Z,6.07
2023-03-03T15:16:49.762Z,5.87
2023-03-03T15:19:38.175Z,5.82
2023-03-03T15:22:20.291Z,5.54
2023-03-03T15:25:09.033Z,5.33
2023-03-03T15:27:41.886Z,5.09
2023-03-03T15:30:24.905Z,5.09
2023-03-03T15:33:03.151Z,5.10
2023-03-03T15:35:48.255Z,5.02
2023-03-03T15:38:17.911Z,5.10
2023-03-03T15:41:06.427Z,6.04
2023-03-03T15:43:51.130Z,7.03
2023-03-03T15:46:25.710Z,7.61
2023-03-03T15:49:11.382Z,7.45
2023-03-03T15:52:03.399Z,6.84
2023-03-03T15:54:44.911Z,6.36
2023-03-03T15:57:21.921Z,6.13
2023-03-03T15:59:59.379Z,5.80
2023-03-03T16:02:49.132Z,5.58
2023-03-03T16:05:33.341Z,5.25
2023-03-03T16:08:00.089Z,5.28
2023-03-03T16:10:46.424Z,5.08
2023-03-03T16:13:46.983Z,4.85
2023-03-03T16:16:19.513Z,4.63
2023-03-03T16:18:58.522Z,4.48
2023-03-03T16:21:47.631Z,4.38
2023-03-03T16:24:47.946Z,4.33
2023-03-03T16:27:32.753Z,4.22
2023-03-03T16:30:30.135Z,4.19
2023-03-03T16:33:08.879Z,3.99
2023-03-03T16:35:46.671Z,3.80
2023-03-03T16:38:19.617Z,3.71
2023-03-03T16:40:59.777Z,3.65
2023-03-03T16:43:32.418Z,3.55
2023-03-03T16:46:42.212Z,3.34
2023-03-03T16:49:27.190Z,3.10
2023-03-03T16:51:59.654Z,2.95
2023-03-03T16:54:54.236Z,2.85
2023-03-03T16:57:48.944Z,2.79
2023-03-03T17:00:29.490Z,2.72
2023-03-03T17:03:05.236Z,2.69
2023-03-03T17:05:54.448Z,2.62
2023-03-03T17:08:33.313Z,2.48
2023-03-03T17:11:25.522Z,2.34
2023-03-03T17:14:01.805Z,2.20
2023-03-03T17:16:49.804Z,2.04
2023-03-03T17:19:40.480Z,1.88
2023-03-03T17:22:27.575Z,1.75
2023-03-03T17:25:17.498Z,1.63
2023-03-03T17:28:02.399Z,1.54
2023-03-03T17:30:39.099Z,1.48
2023-03-03T17:34:02.904Z,1.40
2023-03-03T17:36:46.267Z,1.31
2023-03-03T17:39:27.504Z,1.23
2023-03-03T17:42:12.074Z,1.11
2023-03-03T17:44:50.690Z,1.04
2023-03-03T17:48:11.126Z,0.97
2023-03-03T17:50:43.838Z,0.85
2023-03-03T17:53:15.923Z,0.74
2023-03-03T17:55:48.341Z,0.65
2023-03-03T17:58:55.576Z,0.59
2023-03-03T18:01:59.147Z,0.54
2023-03-03T18:04:34.720Z,0.49
2023-03-03T18:07:14.505Z,0.50
2023-03-03T18:10:14.191Z,0.44
2023-03-03T18:12:47.347Z,0.45
2023-03-03T18:15:33.106Z,0.51
2023-03-03T18:18:21.657Z,0.53
2023-03-03T18:21:09.562Z,0.55
2023-03-03T18:23:47.374Z,0.54
2023-03-03T18:26:35.095Z,0.51
2023-03-03T18:29:13.645Z,0.52
2023-03-03T18:31:45.861Z,0.57
2023-03-03T18:34:21.704Z,0.58
2023-03-03T18:36:53.365Z,0.54
2023-03-03T18:39:50.244Z,0.52
2023-03-03T18:42:16.745Z,0.45
2023-03-03T18:44:44.652Z,0.31
2023-03-03T18:47:11.924Z,0.15
2023-03-03T18:50:07.766Z,0.00
2023-03-03T18:52:35.238Z,-0.15
2023-03-03T18:55:23.672Z,-0.21
2023-03-03T18:58:28.447Z,-0.30
2023-03-03T19:00:57.030Z,-0.33
2023-03-03T19:03:46.861Z,-0.23
2023-03-03T19:06:32.950Z,-0.28
2023-03-03T19:08:59.611Z,-0.30
2023-03-03T19:11:44.890Z,-0.40
2023-03-03T19:14:17.465Z,-0.45
2023-03-03T19:16:45.366Z,-0.53
2023-03-03T19:19:14.879Z,-0.58
2023-03-03T19:21:43.465Z,-0.62
2023-03-03T19:24:16.722Z,-0.71
2023-03-03T19:26:51.816Z,-0.80
2023-03-03T19:29:36.839Z,-0.87
2023-03-03T19:32:31.108Z,-0.95
2023-03-03T19:35:20.143Z,-0.95
2023-03-03T19:37:58.984Z,-0.97
2023-03-03T19:40:37.023Z,-1.02
2023-03-03T19:43:22.335Z,-1.09
2023-03-03T19:46:19.709Z,-1.15
2023-03-03T19:48:52.380Z,-1.18
2023-03-03T19:51:45.460Z,-1.20
2023-03-03T19:54:23.446Z,-1.24
2023-03-03T19:56:54.807Z,-1.26
2023-03-03T19:59:37.401Z,-1.13
2023-03-03T20:02:28.986Z,-1.13
2023-03-03T20:05:20.103Z,-1.16
2023-03-03T20:07:54.790Z,-1.21
2023-03-03T20:10:45.962Z,-1.26
2023-03-03T20:13:42.299Z,-1.36
2023-03-03T20:16:24.460Z,-1.38
2023-03-03T20:19:29.227Z,-1.46
2023-03-03T20:22:11.086Z,-1.51
2023-03-03T20:24:50.295Z,-1.52
2023-03-03T20:27:19.919Z,-1.56
2023-03-03T20:30:16.837Z,-1.61
2023-03-03T20:33:18.128Z,-1.60
2023-03-03T20:36:04.964Z,-1.62
2023-03-03T20:38:43.653Z,-1.66
2023-03-03T20:41:41.501Z,-1.63
2023-03-03T20:44:17.218Z,-1.59
2023-03-03T20:46:52.990Z,-1.55
2023-03-03T20:49:22.489Z,-1.58
2023-03-03T20:51:58.524Z,-1.62
2023-03-03T20:54:37.620Z,-1.65
2023-03-03T20:57:34.062Z,-1.62
2023-03-03T21:00:03.585Z,-1.58
2023-03-03T21:02:45.393Z,-1.60
2023-03-03T21:05:18.658Z,-1.66
2023-03-03T21:08:03.103Z,-1.75
2023-03-03T21:10:35.465Z,-1.82
2023-03-03T21:13:34.131Z,-1.87
2023-03-03T21:16:10.868Z,-1.86
2023-03-03T21:18:37.981Z,-1.85
2023-03-03T21:21:05.346Z,-1.79
2023-03-03T21:23:32.127Z,-1.76
2023-03-03T21:25:58.882Z,-1.75
2023-03-03T21:28:27.448Z,-1.75
2023-03-03T21:31:07.976Z,-1.74
2023-03-03T21:33:55.876Z,-1.74
2023-03-03T21:36:47.350Z,-1.70
2023-03-03T21:39:30.771Z,-1.74
2023-03-03T21:41:57.435Z,-1.78
2023-03-03T21:44:37.583Z,-1.83
2023-03-03T21:47:07.335Z,-1.77
2023-03-03T21:49:34.400Z,-1.78
2023-03-03T21:52:02.045Z,-1.80
2023-03-03T21:54:29.491Z,-1.84
2023-03-03T21:56:56.223Z,-1.92
2023-03-03T21:59:23.334Z,-1.98
2023-03-03T22:01:49.929Z,-2.07
2023-03-03T22:04:16.774Z,-2.19
2023-03-03T22:06:43.887Z,-2.23
2023-03-03T22:09:11.046Z,-2.21
2023-03-03T22:11:39.589Z,-2.20
2023-03-03T22:14:07.243Z,-2.15
2023-03-03T22:16:34.660Z,-2.16
2023-03-03T22:19:02.772Z,-2.17
2023-03-03T22:21:30.101Z,-2.13
2023-03-03T22:23:57.544Z,-2.10
2023-03-03T22:26:24.427Z,-2.06
2023-03-03T22:28:50.979Z,-1.97
2023-03-03T22:31:19.158Z,-1.94
2023-03-03T22:33:47.462Z,-1.97
2023-03-03T22:36:15.412Z,-1.98
2023-03-03T22:38:42.266Z,-1.98
2023-03-03T22:41:09.358Z,-1.94
2023-03-03T22:43:36.112Z,-1.85
2023-03-03T22:46:02.891Z,-1.83
2023-03-03T22:48:30.929Z,-1.81
2023-03-03T22:50:57.875Z,-1.94
2023-03-03T22:53:25.718Z,-2.05
2023-03-03T22:55:53.322Z,-2.14
2023-03-03T22:58:20.610Z,-2.17
2023-03-03T23:00:48.647Z,-2.25
2023-03-03T23:03:15.722Z,-2.26
2023-03-03T23:05:43.315Z,-2.30
2023-03-03T23:08:13.351Z,-2.26
2023-03-03T23:10:40.515Z,-2.22
2023-03-03T23:13:08.575Z,-2.17
2023-03-03T23:15:35.468Z,-2.11
2023-03-03T23:18:02.925Z,-2.06
2023-03-03T23:20:31.846Z,-2.01
2023-03-03T23:22:58.948Z,-1.99
2023-03-03T23:25:25.790Z,-2.07
2023-03-03T23:27:53.827Z,-2.18
2023-03-03T23:30:22.203Z,-2.34
2023-03-03T23:32:49.312Z,-2.42
2023-03-03T23:35:16.828Z,-2.42
2023-03-03T23:37:43.543Z,-2.49
2023-03-03T23:40:11.064Z,-2.47
2023-03-03T23:42:37.726Z,-2.52
2023-03-03T23:45:05.027Z,-2.56
2023-03-03T23:47:31.590Z,-2.65
2023-03-03T23:49:58.288Z,-2.72
2023-03-03T23:52:25.092Z,-2.77
2023-03-03T23:54:53.136Z,-2.80
2023-03-03T23:57:20.172Z,-2.83
2023-03-03T23:59:46.958Z,-2.87
